Time;durP1;ratioP1;P1;durP2;ratioP2;P2;SDS_P1;SDS_P2;PMS_P1;PMS_P2;Temp;Humidity;BMP_temperature;BMP_pressure;BME280_temperature;BME280_humidity;BME280_pressure;Samples;Min_cycle;Max_cycle;Signal;HPM_P1;HPM_P2
2023/10/09 00:01:15;;;;;;;29.40;15.40;;;16.00;99.90;;;;;;5035765;28;20026;-75
2023/10/09 00:03:08;;;;;;;35.00;16.52;;;16.00;99.90;;;;;;5035119;28;20037;-75
2023/10/09 00:05:45;;;;;;;26.50;15.93;;;16.00;99.90;;;;;;5034322;28;20462;-75
2023/10/09 00:08:21;;;;;;;30.02;14.45;;;16.00;99.90;;;;;;5035481;28;20052;-75
2023/10/09 00:10:54;;;;;;;30.83;15.88;;;16.00;99.90;;;;;;5035393;28;20083;-75
2023/10/09 00:13:33;;;;;;;27.95;16.38;;;16.00;99.90;;;;;;5035384;28;20034;-75
2023/10/09 00:16:13;;;;;;;27.63;15.70;;;16.00;99.90;;;;;;5034704;28;20034;-76
2023/10/09 00:18:39;;;;;;;31.73;17.20;;;16.00;99.90;;;;;;5035376;28;20022;-74
2023/10/09 00:21:11;;;;;;;32.53;17.73;;;16.00;99.90;;;;;;5034485;28;20029;-74
2023/10/09 00:23:38;;;;;;;29.65;16.77;;;16.00;99.90;;;;;;5035492;28;20029;-76
2023/10/09 00:26:16;;;;;;;30.75;16.67;;;15.90;99.90;;;;;;5035207;28;20026;-75
2023/10/09 00:28:43;;;;;;;29.80;16.13;;;15.90;99.90;;;;;;5035110;28;20030;-75
2023/10/09 00:31:14;;;;;;;33.08;18.30;;;16.00;99.90;;;;;;5035179;28;20061;-75
2023/10/09 00:33:41;;;;;;;34.22;18.10;;;16.00;99.90;;;;;;5035022;28;20025;-75
2023/10/09 00:36:10;;;;;;;31.90;18.00;;;16.00;99.90;;;;;;5034655;28;20051;-76
2023/10/09 00:38:39;;;;;;;31.67;18.02;;;16.00;99.90;;;;;;5034810;28;20112;-75
2023/10/09 00:43:31;;;;;;;30.38;17.33;;;16.00;99.90;;;;;;5034583;28;20113;-76
2023/10/09 00:46:12;;;;;;;32.95;17.77;;;16.00;99.90;;;;;;5034333;28;20431;-75
2023/10/09 00:48:40;;;;;;;32.38;18.30;;;16.00;99.90;;;;;;5050898;28;20462;-76
2023/10/09 00:51:16;;;;;;;38.42;20.52;;;16.00;99.90;;;;;;5050210;28;20034;-75
2023/10/09 00:53:51;;;;;;;30.35;17.98;;;16.00;99.90;;;;;;5035221;28;20033;-75
2023/10/09 00:56:43;;;;;;;32.10;17.92;;;16.00;99.90;;;;;;5035124;28;20405;-75
2023/10/09 00:59:24;;;;;;;30.75;18.80;;;16.00;99.90;;;;;;5032982;28;20497;-75
2023/10/09 01:01:56;;;;;;;36.40;19.58;;;16.00;99.90;;;;;;5034687;28;20083;-75
2023/10/09 01:04:31;;;;;;;36.22;20.30;;;16.00;99.90;;;;;;5033590;28;20390;-76
2023/10/09 01:09:55;;;;;;;35.15;20.50;;;15.90;99.90;;;;;;5033038;28;20037;-75
2023/10/09 01:12:21;;;;;;;32.03;20.23;;;15.90;99.90;;;;;;5049727;28;20462;-75
2023/10/09 01:14:54;;;;;;;36.55;21.20;;;15.90;99.90;;;;;;5033603;28;20088;-75
2023/10/09 01:17:35;;;;;;;36.95;21.77;;;15.90;99.90;;;;;;5034800;28;20133;-75
2023/10/09 01:20:04;;;;;;;38.53;20.98;;;15.80;99.90;;;;;;5034433;28;20451;-75
2023/10/09 01:22:30;;;;;;;37.97;21.95;;;15.80;99.90;;;;;;5034103;28;20121;-76
2023/10/09 01:24:55;;;;;;;33.90;20.73;;;15.80;99.90;;;;;;5034375;28;20053;-75
2023/10/09 01:27:24;;;;;;;38.88;21.90;;;15.80;99.90;;;;;;5034620;28;20025;-76
2023/10/09 01:29:51;;;;;;;38.47;20.85;;;15.80;99.90;;;;;;5049410;28;20068;-76
2023/10/09 01:32:19;;;;;;;36.85;20.67;;;15.80;99.90;;;;;;5033484;28;20044;-76
2023/10/09 01:34:48;;;;;;;36.58;21.40;;;15.80;99.90;;;;;;5033064;28;20532;-76
2023/10/09 01:37:28;;;;;;;42.08;21.70;;;15.80;99.90;;;;;;5034064;28;20504;-75
2023/10/09 01:40:04;;;;;;;40.25;22.73;;;15.80;99.90;;;;;;5034417;28;20038;-75
2023/10/09 01:44:58;;;;;;;38.08;21.10;;;15.80;99.90;;;;;;5033857;28;20029;-75
2023/10/09 01:47:25;;;;;;;38.92;22.63;;;15.80;99.90;;;;;;5034024;28;20022;-74
2023/10/09 01:49:53;;;;;;;36.22;21.35;;;15.80;99.90;;;;;;5049331;28;20061;-74
2023/10/09 01:52:20;;;;;;;38.88;22.98;;;15.80;99.90;;;;;;5049208;28;20034;-74
2023/10/09 01:54:48;;;;;;;38.50;22.02;;;15.80;99.90;;;;;;5033362;28;20473;-74
2023/10/09 01:57:15;;;;;;;38.53;21.75;;;15.80;99.90;;;;;;5033632;28;20030;-74
2023/10/09 01:59:47;;;;;;;39.70;22.63;;;15.80;99.90;;;;;;5033611;28;20057;-74
2023/10/09 02:02:25;;;;;;;38.10;23.23;;;15.80;99.90;;;;;;5032504;28;20029;-74
2023/10/09 02:07:41;;;;;;;41.05;23.75;;;15.80;99.90;;;;;;5033315;28;20083;-74
2023/10/09 02:13:12;;;;;;;40.70;22.52;;;15.80;99.90;;;;;;5033771;28;20075;-74
2023/10/09 02:18:16;;;;;;;39.15;22.98;;;15.90;99.90;;;;;;5033490;28;20436;-74
2023/10/09 02:20:45;;;;;;;38.72;22.98;;;15.90;99.90;;;;;;5033446;28;20026;-74
2023/10/09 02:23:16;;;;;;;41.28;24.80;;;15.90;99.90;;;;;;5033915;28;20030;-74
2023/10/09 02:25:43;;;;;;;38.17;22.80;;;15.90;99.90;;;;;;5033471;28;20029;-75
2023/10/09 02:28:17;;;;;;;40.88;24.05;;;16.00;99.90;;;;;;5033322;28;20470;-75
2023/10/09 02:30:49;;;;;;;39.35;22.17;;;16.00;99.90;;;;;;5033562;28;20029;-75
2023/10/09 02:33:27;;;;;;;47.20;24.67;;;15.90;99.90;;;;;;5033591;28;20074;-75
2023/10/09 02:35:55;;;;;;;36.15;23.02;;;16.00;99.90;;;;;;5033365;28;20401;-75
2023/10/09 02:38:23;;;;;;;33.60;21.92;;;16.00;99.90;;;;;;5033259;28;20107;-75
2023/10/09 02:43:47;;;;;;;37.63;23.95;;;16.10;99.90;;;;;;5034121;28;20076;-74
2023/10/09 02:46:31;;;;;;;40.67;23.55;;;16.10;99.90;;;;;;5036867;28;20026;-75
2023/10/09 02:49:03;;;;;;;36.80;22.80;;;16.10;99.90;;;;;;5052394;28;20065;-75
2023/10/09 02:53:58;;;;;;;42.08;22.45;;;16.10;99.90;;;;;;5036879;28;20038;-75
2023/10/09 02:56:24;;;;;;;35.28;22.05;;;16.10;99.90;;;;;;5037170;28;20033;-75
2023/10/09 02:59:05;;;;;;;39.55;23.98;;;16.10;99.90;;;;;;5036801;28;20030;-76
2023/10/09 03:01:31;;;;;;;36.08;23.67;;;16.10;99.90;;;;;;5035712;28;20026;-74
2023/10/09 03:04:02;;;;;;;37.60;23.58;;;16.10;99.90;;;;;;5035334;28;20034;-75
2023/10/09 03:06:31;;;;;;;35.20;23.00;;;16.10;99.90;;;;;;5037271;28;20042;-75
2023/10/09 03:09:00;;;;;;;46.72;24.60;;;16.10;99.90;;;;;;5036526;28;20025;-74
2023/10/09 03:11:28;;;;;;;39.97;23.08;;;16.10;99.90;;;;;;5036433;28;20084;-74
2023/10/09 03:13:55;;;;;;;35.70;23.45;;;16.10;99.90;;;;;;5036493;28;20030;-74
2023/10/09 03:16:21;;;;;;;40.83;23.33;;;16.10;99.90;;;;;;5035494;28;20031;-74
2023/10/09 03:18:52;;;;;;;40.15;23.40;;;16.10;99.90;;;;;;5052357;28;20420;-74
2023/10/09 03:21:18;;;;;;;37.45;22.00;;;16.10;99.90;;;;;;5036379;28;20045;-74
2023/10/09 03:23:51;;;;;;;36.60;22.88;;;16.10;99.90;;;;;;5036343;28;20026;-74
2023/10/09 03:26:17;;;;;;;39.08;23.95;;;16.20;99.90;;;;;;5035487;28;20128;-74
2023/10/09 03:28:47;;;;;;;37.28;23.17;;;16.10;99.90;;;;;;5036249;28;20038;-74
2023/10/09 03:31:14;;;;;;;38.70;21.70;;;16.10;99.90;;;;;;5036157;28;20026;-74
2023/10/09 03:33:40;;;;;;;40.70;23.70;;;16.10;99.90;;;;;;5036165;28;20041;-74
2023/10/09 03:36:09;;;;;;;35.75;21.75;;;16.20;99.90;;;;;;5036003;28;20053;-74
2023/10/09 03:38:36;;;;;;;35.80;22.17;;;16.20;99.90;;;;;;5035729;28;20026;-75
2023/10/09 03:41:06;;;;;;;38.78;22.05;;;16.20;99.90;;;;;;5034872;28;20033;-74
2023/10/09 03:43:37;;;;;;;33.90;21.58;;;16.20;99.90;;;;;;5035733;28;20108;-74
2023/10/09 03:46:05;;;;;;;36.25;22.02;;;16.20;99.90;;;;;;5035912;28;20033;-74
2023/10/09 03:48:36;;;;;;;34.85;23.25;;;16.30;99.90;;;;;;5035859;28;20033;-75
2023/10/09 03:51:21;;;;;;;35.50;21.77;;;16.30;99.90;;;;;;5036302;28;20041;-75
2023/10/09 03:53:48;;;;;;;31.00;20.27;;;16.30;99.90;;;;;;5035726;28;20040;-75
2023/10/09 03:56:15;;;;;;;32.95;21.98;;;16.30;99.90;;;;;;5034458;28;20029;-75
2023/10/09 03:58:43;;;;;;;34.33;21.35;;;16.30;99.90;;;;;;5035606;28;20030;-74
2023/10/09 04:01:29;;;;;;;37.45;22.33;;;16.30;99.90;;;;;;5035282;28;20474;-74
2023/10/09 04:04:03;;;;;;;33.75;20.88;;;16.30;99.90;;;;;;5035868;28;20402;-75
2023/10/09 04:06:32;;;;;;;31.30;20.98;;;16.30;99.90;;;;;;5035488;28;20044;-75
2023/10/09 04:11:49;;;;;;;33.35;21.52;;;16.30;99.90;;;;;;5035672;28;20040;-74
2023/10/09 04:14:32;;;;;;;27.20;19.05;;;16.30;99.90;;;;;;5035612;28;20044;-75
2023/10/09 04:17:06;;;;;;;30.85;20.55;;;16.30;99.90;;;;;;5035401;28;20088;-74
2023/10/09 04:19:47;;;;;;;28.58;20.02;;;16.30;99.90;;;;;;5035779;28;20121;-75
2023/10/09 04:22:25;;;;;;;31.85;19.45;;;16.40;99.90;;;;;;5035483;28;20030;-75
2023/10/09 04:24:51;;;;;;;33.42;20.70;;;16.30;99.90;;;;;;5035171;28;20034;-75
2023/10/09 04:27:17;;;;;;;32.42;19.42;;;16.30;99.90;;;;;;5034857;28;20040;-75
2023/10/09 04:29:49;;;;;;;30.77;19.92;;;16.30;99.90;;;;;;5035039;28;20033;-75
2023/10/09 04:32:18;;;;;;;31.58;19.40;;;16.40;99.90;;;;;;5033866;28;20034;-75
2023/10/09 04:34:51;;;;;;;31.17;18.90;;;16.40;99.90;;;;;;5034900;28;20449;-75
2023/10/09 04:37:36;;;;;;;28.20;18.63;;;16.40;99.90;;;;;;5035453;28;20371;-75
2023/10/09 04:40:51;;;;;;;35.50;18.80;;;16.40;99.90;;;;;;5035648;28;20029;-75
2023/10/09 04:43:05;;;;;;;28.15;18.58;;;16.40;99.90;;;;;;5033863;28;20402;-76
2023/10/09 04:48:09;;;;;;;37.03;19.75;;;16.40;99.90;;;;;;5033403;28;20112;-76
2023/10/09 04:55:44;;;;;;;25.15;17.80;;;16.40;99.90;;;;;;5034871;28;20473;-78
2023/10/09 04:58:13;;;;;;;27.35;18.40;;;16.40;99.90;;;;;;5033235;28;20026;-79
2023/10/09 05:03:12;;;;;;;27.17;18.70;;;16.50;99.90;;;;;;5034448;28;20068;-78
2023/10/09 05:08:28;;;;;;;25.00;18.15;;;16.50;99.90;;;;;;5034240;28;20036;-77
2023/10/09 05:13:42;;;;;;;26.87;17.40;;;16.50;99.90;;;;;;5034209;28;20458;-79
2023/10/09 05:16:18;;;;;;;33.47;18.47;;;16.40;99.90;;;;;;5034439;28;20330;-77
2023/10/09 05:19:28;;;;;;;25.40;17.88;;;16.50;99.90;;;;;;5034476;28;20256;-81
2023/10/09 05:21:58;;;;;;;27.02;17.48;;;16.40;99.90;;;;;;5033913;28;20025;-77
2023/10/09 05:24:26;;;;;;;28.65;19.02;;;16.40;99.90;;;;;;5034500;28;20044;-75
2023/10/09 05:26:52;;;;;;;30.50;19.42;;;16.40;99.90;;;;;;5033930;28;20040;-76
2023/10/09 05:32:18;;;;;;;27.67;18.08;;;16.50;99.90;;;;;;5033509;28;20087;-78
2023/10/09 05:37:33;;;;;;;32.65;18.98;;;16.50;99.90;;;;;;5032802;28;20080;-78
2023/10/09 05:47:53;;;;;;;27.23;18.08;;;16.50;99.90;;;;;;5033586;28;20040;-78
2023/10/09 06:14:03;;;;;;;24.48;15.70;;;16.70;99.90;;;;;;5033585;28;20132;-80
2023/10/09 06:16:41;;;;;;;27.48;16.15;;;16.70;99.90;;;;;;5033398;28;20446;-80
2023/10/09 06:24:18;;;;;;;27.45;15.50;;;16.80;99.90;;;;;;5037667;28;20041;-81
2023/10/09 06:29:50;;;;;;;31.27;17.63;;;16.80;99.90;;;;;;5037318;28;20041;-82
2023/10/09 06:38:21;;;;;;;26.02;16.05;;;16.90;99.90;;;;;;5037439;28;20070;-82
2023/10/09 06:43:53;;;;;;;28.33;16.90;;;16.90;99.90;;;;;;5037279;28;20026;-80
2023/10/09 06:45:54;;;;;;;27.20;15.70;;;16.90;99.90;;;;;;5037262;28;20049;-80
2023/10/09 06:51:15;;;;;;;26.88;15.75;;;16.90;99.90;;;;;;5036984;28;20370;-82
2023/10/09 06:59:21;;;;;;;22.20;14.32;;;17.00;99.90;;;;;;5036908;28;20053;-81
2023/10/09 07:07:07;;;;;;;25.63;15.15;;;17.00;99.90;;;;;;5036502;28;20444;-79
2023/10/09 07:09:42;;;;;;;29.80;16.95;;;17.00;99.90;;;;;;5036994;28;20021;-79
2023/10/09 07:12:25;;;;;;;23.70;15.60;;;17.00;99.90;;;;;;5036942;28;20052;-80
2023/10/09 07:20:36;;;;;;;28.27;15.48;;;17.00;99.90;;;;;;5036464;28;20087;-78
2023/10/09 07:23:15;;;;;;;28.80;16.45;;;17.00;99.90;;;;;;5036508;28;20029;-79
2023/10/09 07:25:42;;;;;;;29.13;17.50;;;17.10;99.90;;;;;;5036804;28;20052;-74
2023/10/09 07:28:18;;;;;;;24.67;16.52;;;17.00;99.90;;;;;;5036129;28;20041;-75
2023/10/09 07:30:47;;;;;;;28.90;16.17;;;17.00;99.90;;;;;;5035792;28;20041;-75
2023/10/09 07:38:20;;;;;;;28.15;16.00;;;17.10;99.90;;;;;;5035785;28;20128;-75
2023/10/09 07:43:39;;;;;;;26.70;16.77;;;17.00;99.90;;;;;;5036131;28;20040;-78
2023/10/09 07:48:53;;;;;;;26.90;17.70;;;17.00;99.90;;;;;;5036135;28;20468;-79
2023/10/09 07:51:23;;;;;;;27.05;16.75;;;17.10;99.90;;;;;;5034158;28;20451;-77
2023/10/09 07:53:56;;;;;;;27.67;17.33;;;17.00;99.90;;;;;;5035888;28;20112;-78
2023/10/09 07:56:30;;;;;;;24.02;16.27;;;17.10;99.90;;;;;;5035518;28;20029;-78
2023/10/09 07:59:01;;;;;;;30.20;17.92;;;17.10;99.90;;;;;;5036201;28;20043;-77
2023/10/09 08:01:35;;;;;;;32.97;17.73;;;17.20;99.90;;;;;;5036104;28;20092;-77
2023/10/09 08:04:05;;;;;;;31.10;16.90;;;17.20;99.90;;;;;;5035217;28;20368;-79
2023/10/09 08:06:42;;;;;;;25.85;15.18;;;17.20;99.90;;;;;;5051429;28;20344;-77
2023/10/09 08:11:59;;;;;;;24.45;17.38;;;17.30;99.90;;;;;;5035558;28;20116;-80
2023/10/09 08:17:37;;;;;;;29.13;18.33;;;17.30;99.90;;;;;;5033856;28;20041;-74
2023/10/09 08:19:54;;;;;;;27.30;16.90;;;17.40;99.90;;;;;;5034499;28;20509;-74
2023/10/09 08:24:56;;;;;;;27.00;17.92;;;17.50;99.90;;;;;;5035055;28;20028;-75
2023/10/09 08:33:03;;;;;;;27.75;17.45;;;17.50;99.90;;;;;;5034810;28;20044;-76
2023/10/09 08:35:30;;;;;;;27.67;17.83;;;17.50;99.90;;;;;;5034673;28;20087;-78
2023/10/09 08:37:59;;;;;;;26.35;17.88;;;17.50;99.90;;;;;;5034216;28;20054;-77
2023/10/09 08:40:38;;;;;;;28.15;17.52;;;17.60;99.90;;;;;;5034931;28;20022;-78
2023/10/09 08:43:16;;;;;;;27.08;16.95;;;17.60;99.90;;;;;;5032593;28;20112;-78
2023/10/09 08:45:46;;;;;;;29.67;17.52;;;17.60;99.90;;;;;;5034582;28;20082;-78
2023/10/09 08:48:15;;;;;;;27.58;16.55;;;17.60;99.90;;;;;;5034834;28;20022;-78
2023/10/09 08:50:49;;;;;;;27.27;16.60;;;17.70;99.90;;;;;;5034539;28;20026;-76
2023/10/09 08:53:16;;;;;;;35.47;17.15;;;17.70;99.90;;;;;;5034499;28;20389;-76
2023/10/09 08:55:43;;;;;;;27.02;16.60;;;17.70;99.90;;;;;;5034723;28;20095;-76
2023/10/09 08:58:26;;;;;;;27.88;15.32;;;17.70;99.90;;;;;;5034340;28;20044;-74
2023/10/09 09:00:55;;;;;;;25.52;16.40;;;17.70;99.90;;;;;;5034137;28;20026;-73
2023/10/09 09:03:25;;;;;;;30.00;17.25;;;17.70;99.90;;;;;;5034180;28;20470;-75
2023/10/09 09:06:01;;;;;;;26.92;16.02;;;17.80;99.90;;;;;;5034700;28;20036;-74
2023/10/09 09:08:28;;;;;;;25.33;15.68;;;17.80;99.90;;;;;;5034217;28;20188;-75
2023/10/09 09:11:30;;;;;;;35.45;16.50;;;17.80;99.90;;;;;;5034206;28;20029;-76
2023/10/09 09:14:02;;;;;;;37.58;19.00;;;17.90;99.90;;;;;;5015508;28;20065;-76
2023/10/09 09:16:32;;;;;;;25.63;14.98;;;17.90;99.90;;;;;;5033870;28;20037;-74
2023/10/09 09:19:17;;;;;;;27.02;16.95;;;18.00;99.90;;;;;;5033520;28;20389;-75
2023/10/09 09:21:49;;;;;;;28.92;16.23;;;17.90;99.90;;;;;;5034765;28;20045;-76
2023/10/09 09:26:58;;;;;;;26.02;14.95;;;18.00;99.90;;;;;;5033719;28;20029;-75
2023/10/09 09:29:38;;;;;;;28.17;14.63;;;18.00;99.90;;;;;;5050100;28;20409;-75
2023/10/09 09:32:21;;;;;;;28.40;15.85;;;18.10;99.90;;;;;;5034014;28;20120;-75
2023/10/09 09:34:54;;;;;;;27.92;15.82;;;18.10;99.90;;;;;;5033883;28;20034;-75
2023/10/09 09:37:34;;;;;;;27.52;14.70;;;18.20;99.90;;;;;;5033741;28;20491;-77
2023/10/09 09:40:14;;;;;;;20.38;14.43;;;18.20;99.90;;;;;;5034304;28;20043;-76
2023/10/09 09:42:45;;;;;;;25.77;14.68;;;18.30;99.90;;;;;;5034090;28;20029;-76
2023/10/09 09:45:11;;;;;;;29.17;14.75;;;18.30;99.90;;;;;;5034475;28;20037;-75
2023/10/09 09:47:37;;;;;;;26.55;15.02;;;18.40;99.90;;;;;;5033107;28;20347;-76
2023/10/09 09:50:13;;;;;;;25.52;13.68;;;18.40;99.90;;;;;;5033831;28;20029;-76
2023/10/09 09:52:39;;;;;;;26.83;14.55;;;18.50;99.90;;;;;;5033798;28;20025;-76
2023/10/09 09:55:14;;;;;;;24.05;13.68;;;18.50;99.90;;;;;;5033802;28;20030;-76
2023/10/09 09:57:41;;;;;;;22.02;12.48;;;18.60;99.90;;;;;;5034212;28;20407;-76
2023/10/09 10:00:36;;;;;;;22.48;11.75;;;18.60;99.90;;;;;;5032989;28;20036;-76
2023/10/09 10:03:08;;;;;;;22.27;12.05;;;18.70;99.90;;;;;;5033611;28;20068;-75
2023/10/09 10:05:37;;;;;;;22.67;11.30;;;18.70;99.90;;;;;;5033468;28;20577;-76
2023/10/09 10:08:05;;;;;;;18.05;10.30;;;18.80;99.90;;;;;;5032967;28;20082;-75
2023/10/09 10:10:52;;;;;;;16.83;9.95;;;18.80;99.90;;;;;;5033393;28;20076;-76
2023/10/09 10:13:37;;;;;;;18.98;8.95;;;18.90;99.90;;;;;;5033279;28;20045;-75
2023/10/09 10:16:19;;;;;;;16.38;9.30;;;18.90;99.90;;;;;;5032977;28;20037;-76
2023/10/09 10:19:00;;;;;;;23.08;10.15;;;19.00;99.90;;;;;;5033574;28;20025;-75
2023/10/09 10:21:39;;;;;;;18.58;9.25;;;19.10;99.90;;;;;;5048964;28;20033;-75
2023/10/09 10:24:24;;;;;;;14.23;8.05;;;19.10;99.90;;;;;;5033233;28;20026;-75
2023/10/09 10:27:11;;;;;;;17.48;8.90;;;19.10;99.90;;;;;;5033829;28;20104;-77
2023/10/09 10:29:38;;;;;;;20.08;9.35;;;19.10;99.90;;;;;;5033902;28;20079;-75
2023/10/09 10:32:08;;;;;;;15.18;8.98;;;19.10;99.90;;;;;;5032764;28;20038;-75
2023/10/09 10:34:55;;;;;;;13.93;7.75;;;19.10;99.90;;;;;;5033064;28;20030;-75
2023/10/09 10:37:28;;;;;;;17.58;8.10;;;19.10;99.90;;;;;;5032898;28;20092;-75
2023/10/09 10:39:59;;;;;;;16.65;8.52;;;19.20;99.90;;;;;;5033105;28;20045;-75
2023/10/09 10:42:34;;;;;;;15.52;8.00;;;19.20;99.90;;;;;;5033092;28;20529;-75
2023/10/09 10:45:33;;;;;;;15.98;7.60;;;19.20;99.90;;;;;;5033046;28;20072;-77
2023/10/09 10:47:50;;;;;;;14.98;7.75;;;19.30;99.90;;;;;;5032624;28;20030;-75
2023/10/09 10:53:15;;;;;;;17.38;7.95;;;19.30;99.90;;;;;;5033018;28;20527;-75
2023/10/09 11:01:50;;;;;;;12.60;7.03;;;19.40;99.90;;;;;;5032948;28;20105;-75
2023/10/09 11:04:47;;;;;;;13.75;7.38;;;19.40;99.90;;;;;;5033293;28;20037;-75
2023/10/09 11:10:09;;;;;;;15.90;7.03;;;19.60;99.90;;;;;;5036338;28;20026;-75
2023/10/09 11:15:44;;;;;;;11.90;6.60;;;19.70;99.90;;;;;;5036765;28;20052;-76
2023/10/09 11:18:19;;;;;;;13.75;6.30;;;19.80;99.90;;;;;;5036071;28;20026;-76
2023/10/09 11:28:57;;;;;;;14.93;6.82;;;19.90;99.90;;;;;;5036538;28;20449;-77
2023/10/09 11:31:23;;;;;;;11.20;5.65;;;19.90;99.90;;;;;;5036331;28;20033;-75
2023/10/09 11:33:53;;;;;;;11.05;5.38;;;20.00;99.90;;;;;;5036306;28;20029;-75
2023/10/09 11:36:32;;;;;;;14.33;5.63;;;20.00;99.90;;;;;;5035913;28;20057;-76
2023/10/09 11:39:22;;;;;;;13.13;6.40;;;20.00;99.90;;;;;;5035233;28;20283;-75
2023/10/09 11:41:49;;;;;;;14.82;6.70;;;20.10;99.90;;;;;;5036243;28;20032;-75
2023/10/09 11:44:23;;;;;;;12.05;5.90;;;20.10;99.90;;;;;;5036282;28;20458;-77
2023/10/09 11:47:22;;;;;;;16.08;6.43;;;20.20;99.90;;;;;;5036410;28;20033;-79
2023/10/09 11:55:00;;;;;;;12.15;5.53;;;20.40;99.90;;;;;;5035641;28;20033;-76
2023/10/09 11:57:33;;;;;;;19.45;5.80;;;20.40;99.90;;;;;;5035383;28;20029;-78
2023/10/09 12:00:10;;;;;;;11.43;4.93;;;20.40;99.90;;;;;;5035779;28;20022;-77
2023/10/09 12:02:43;;;;;;;12.60;5.13;;;20.40;99.90;;;;;;5035617;28;20112;-77
2023/10/09 12:05:16;;;;;;;14.27;5.35;;;20.50;99.90;;;;;;5036098;28;20081;-78
2023/10/09 12:07:46;;;;;;;11.13;5.30;;;20.40;99.90;;;;;;5035848;28;20103;-77
2023/10/09 12:10:15;;;;;;;10.25;4.72;;;20.40;99.90;;;;;;5035499;28;20030;-77
2023/10/09 12:12:46;;;;;;;13.38;5.38;;;20.50;99.90;;;;;;5035294;28;20038;-76
2023/10/09 12:15:17;;;;;;;14.05;5.22;;;20.50;99.90;;;;;;5035254;28;20041;-77
2023/10/09 12:17:47;;;;;;;15.25;5.88;;;20.60;99.90;;;;;;5034885;28;20033;-76
2023/10/09 12:20:32;;;;;;;12.38;5.07;;;20.60;99.90;;;;;;5033747;28;20036;-78
2023/10/09 12:23:04;;;;;;;13.52;4.88;;;20.60;99.90;;;;;;5034887;28;20064;-78
2023/10/09 12:25:31;;;;;;;;;;;20.60;99.90;;;;;;5034714;28;20116;-78
2023/10/09 12:27:58;;;;;;;11.43;4.65;;;20.60;99.90;;;;;;5034639;28;19905;-77
2023/10/09 12:30:27;;;;;;;11.75;4.68;;;20.60;99.90;;;;;;5035555;28;20070;-76
2023/10/09 12:32:54;;;;;;;10.88;4.40;;;20.60;99.90;;;;;;5035133;28;20039;-81
2023/10/09 12:35:20;;;;;;;14.45;5.07;;;20.60;99.90;;;;;;5035811;28;20041;-82
2023/10/09 12:37:46;;;;;;;12.05;4.57;;;20.60;99.90;;;;;;5034870;28;20429;-81
2023/10/09 12:40:12;;;;;;;11.02;4.20;;;20.70;99.90;;;;;;5034966;28;20094;-83
2023/10/09 12:42:38;;;;;;;10.80;4.70;;;20.60;99.90;;;;;;5017177;28;20069;-82
2023/10/09 12:45:08;;;;;;;11.93;4.18;;;20.60;99.90;;;;;;5035288;28;20113;-80
2023/10/09 12:47:37;;;;;;;11.75;4.70;;;20.60;99.90;;;;;;5033477;28;20041;-80
2023/10/09 12:50:13;;;;;;;11.90;4.47;;;20.60;99.90;;;;;;5033813;28;20485;-80
2023/10/09 12:52:39;;;;;;;11.50;4.43;;;20.60;99.90;;;;;;5034698;28;20033;-79
2023/10/09 12:55:07;;;;;;;10.48;4.15;;;20.50;99.90;;;;;;5034903;28;20034;-80
2023/10/09 12:57:33;;;;;;;9.65;4.07;;;20.50;99.90;;;;;;5034916;28;20052;-82
2023/10/09 12:59:59;;;;;;;12.40;4.55;;;20.50;99.90;;;;;;5035042;28;20025;-76
2023/10/09 13:02:28;;;;;;;11.48;4.03;;;20.50;99.90;;;;;;5034728;28;20026;-77
2023/10/09 13:04:59;;;;;;;8.57;4.13;;;20.50;99.90;;;;;;5017798;28;20392;-77
2023/10/09 13:07:25;;;;;;;10.38;3.70;;;20.50;99.90;;;;;;5034235;28;20065;-77
2023/10/09 13:10:09;;;;;;;11.88;4.50;;;20.50;99.90;;;;;;5033014;28;20386;-79
2023/10/09 13:12:41;;;;;;;12.52;4.38;;;20.50;99.90;;;;;;5033884;28;20446;-78
2023/10/09 13:15:09;;;;;;;7.78;4.03;;;20.50;99.90;;;;;;5033017;28;20512;-79
2023/10/09 13:17:36;;;;;;;8.63;4.25;;;20.50;99.90;;;;;;5034217;28;20541;-78
2023/10/09 13:20:12;;;;;;;9.57;4.40;;;20.40;99.90;;;;;;5034197;28;20109;-78
2023/10/09 13:22:57;;;;;;;9.23;4.03;;;20.40;99.90;;;;;;5034211;28;20071;-78
2023/10/09 13:25:26;;;;;;;8.30;4.22;;;20.40;99.90;;;;;;5017420;28;20064;-78
2023/10/09 13:27:51;;;;;;;12.18;4.82;;;20.50;99.90;;;;;;5032971;28;20480;-78
2023/10/09 13:30:24;;;;;;;10.90;4.47;;;20.40;99.90;;;;;;5033782;28;20037;-78
2023/10/09 13:32:49;;;;;;;;;;;20.40;99.90;;;;;;5034743;28;20473;-78
2023/10/09 13:35:19;;;;;;;12.02;4.60;;;20.40;99.90;;;;;;5033117;28;19909;-79
2023/10/09 13:37:53;;;;;;;8.15;4.38;;;20.40;99.90;;;;;;5034487;28;20052;-78
2023/10/09 13:40:28;;;;;;;9.60;3.92;;;20.40;99.90;;;;;;5032878;28;20026;-79
2023/10/09 13:42:58;;;;;;;12.60;4.55;;;20.40;99.90;;;;;;5033199;28;20026;-78
2023/10/09 13:45:28;;;;;;;12.35;4.68;;;20.30;99.90;;;;;;5033782;28;20112;-79
2023/10/09 13:47:57;;;;;;;7.85;4.10;;;20.30;99.90;;;;;;5033791;28;20030;-78
2023/10/09 13:50:32;;;;;;;13.95;4.55;;;20.30;99.90;;;;;;5034027;28;20033;-76
2023/10/09 13:52:58;;;;;;;12.05;3.92;;;20.30;99.90;;;;;;5034232;28;20425;-78
2023/10/09 13:55:31;;;;;;;11.18;4.13;;;20.30;99.90;;;;;;5032616;28;20041;-78
2023/10/09 13:57:57;;;;;;;;;;;20.30;99.90;;;;;;5034419;28;20032;-76
2023/10/09 14:00:33;;;;;;;9.68;4.22;;;20.30;99.90;;;;;;5033663;28;19905;-76
2023/10/09 14:03:11;;;;;;;12.32;4.82;;;20.30;99.90;;;;;;5032927;28;20128;-75
2023/10/09 14:05:44;;;;;;;16.52;4.75;;;20.30;99.90;;;;;;5032857;28;20414;-75
2023/10/09 14:08:10;;;;;;;12.20;4.32;;;20.20;99.90;;;;;;5033735;28;20378;-76
2023/10/09 14:10:38;;;;;;;12.82;4.75;;;20.20;99.90;;;;;;5033810;28;20040;-76
2023/10/09 14:13:12;;;;;;;11.52;3.90;;;20.20;99.90;;;;;;5033115;28;20079;-76
2023/10/09 14:15:41;;;;;;;11.38;4.40;;;20.20;99.90;;;;;;5033711;28;20041;-77
2023/10/09 14:18:08;;;;;;;15.55;4.70;;;20.20;99.90;;;;;;5033289;28;20037;-76
2023/10/09 14:20:34;;;;;;;15.23;4.00;;;20.20;99.90;;;;;;5032346;28;20086;-76
2023/10/09 14:23:07;;;;;;;8.80;4.10;;;20.20;99.90;;;;;;5031954;28;20124;-76
2023/10/09 14:25:39;;;;;;;7.63;3.70;;;20.20;99.90;;;;;;5033872;28;20033;-76
2023/10/09 14:28:09;;;;;;;13.73;3.63;;;20.20;99.90;;;;;;5033134;28;20028;-76
2023/10/09 14:30:44;;;;;;;9.98;3.78;;;20.30;99.90;;;;;;5033679;28;20026;-75
2023/10/09 14:33:13;;;;;;;9.25;3.78;;;20.30;99.90;;;;;;5033527;28;20377;-76
2023/10/09 14:35:44;;;;;;;11.07;4.03;;;20.30;99.90;;;;;;5032330;28;20393;-76
2023/10/09 14:38:14;;;;;;;14.05;4.20;;;20.40;99.90;;;;;;5034040;28;20044;-75
2023/10/09 14:40:47;;;;;;;8.93;3.75;;;20.30;99.90;;;;;;5034648;28;20033;-76
2023/10/09 14:43:19;;;;;;;9.35;3.50;;;20.30;99.90;;;;;;5036721;28;20044;-76
2023/10/09 14:45:48;;;;;;;8.02;3.10;;;20.30;99.90;;;;;;5037652;28;20025;-76
2023/10/09 14:48:28;;;;;;;11.38;4.00;;;20.30;99.90;;;;;;5037122;28;20052;-76
2023/10/09 14:51:04;;;;;;;12.52;4.95;;;20.30;99.90;;;;;;5037365;28;20036;-76
2023/10/09 14:53:30;;;;;;;8.43;3.92;;;20.30;99.90;;;;;;5036127;28;20029;-76
2023/10/09 14:55:56;;;;;;;11.20;4.88;;;20.30;99.90;;;;;;5036905;28;20034;-76
2023/10/09 14:58:25;;;;;;;12.27;4.57;;;20.30;99.90;;;;;;5035895;28;20048;-75
2023/10/09 15:00:54;;;;;;;12.45;4.38;;;20.30;99.90;;;;;;5035596;28;20040;-76
2023/10/09 15:03:20;;;;;;;9.00;4.43;;;20.30;99.90;;;;;;5037134;28;20547;-76
2023/10/09 15:05:49;;;;;;;14.45;4.70;;;20.20;99.90;;;;;;5036469;28;20052;-76
2023/10/09 15:08:15;;;;;;;13.65;4.90;;;20.20;99.90;;;;;;5036666;28;20470;-76
2023/10/09 15:10:47;;;;;;;12.38;5.05;;;20.20;99.90;;;;;;5036429;28;20029;-76
2023/10/09 15:13:16;;;;;;;10.32;3.95;;;20.20;99.90;;;;;;5036284;28;20410;-76
2023/10/09 15:15:43;;;;;;;9.95;4.88;;;20.30;99.90;;;;;;5035676;28;20030;-75
2023/10/09 15:18:12;;;;;;;10.98;4.57;;;20.30;99.90;;;;;;5036379;28;20022;-77
2023/10/09 15:20:39;;;;;;;12.75;4.57;;;20.20;99.90;;;;;;5036748;28;20064;-77
2023/10/09 15:23:06;;;;;;;9.73;3.97;;;20.30;99.90;;;;;;5036749;28;20064;-78
2023/10/09 15:25:31;;;;;;;9.75;4.47;;;20.30;99.90;;;;;;5036736;28;20033;-77
2023/10/09 15:27:57;;;;;;;14.15;4.50;;;20.30;99.90;;;;;;5035094;28;20451;-77
2023/10/09 15:30:23;;;;;;;8.95;4.60;;;20.30;99.90;;;;;;5034977;28;20061;-76
2023/10/09 15:32:49;;;;;;;12.25;4.30;;;20.30;99.90;;;;;;5034996;28;20080;-78
2023/10/09 15:35:15;;;;;;;11.95;4.65;;;20.30;99.90;;;;;;5035282;28;20037;-78
2023/10/09 15:37:41;;;;;;;10.10;4.18;;;20.30;99.90;;;;;;5035881;28;20052;-78
2023/10/09 15:40:14;;;;;;;10.38;4.18;;;20.30;99.90;;;;;;5036283;28;20030;-78
2023/10/09 15:42:43;;;;;;;12.00;4.35;;;20.30;99.90;;;;;;5036404;28;20378;-78
2023/10/09 15:45:11;;;;;;;14.73;4.20;;;20.20;99.90;;;;;;5036001;28;20061;-77